Time;durP1;ratioP1;P1;durP2;ratioP2;P2;SDS_P1;SDS_P2;PMS_P1;PMS_P2;Temp;Humidity;BMP_temperature;BMP_pressure;BME280_temperature;BME280_humidity;BME280_pressure;Samples;Min_cycle;Max_cycle;Signal;HPM_P1;HPM_P2
2022/05/23 00:01:24;;;;;;;;;;;;;;;21.72;73.83;96489.28;611838;231;66805;-72
2022/05/23 00:03:51;;;;;;;;;;;;;;;21.72;74.31;96485.81;611766;232;66315;-74
2022/05/23 00:06:20;;;;;;;;;;;;;;;21.71;73.63;96487.67;611803;232;67043;-74
2022/05/23 00:08:50;;;;;;;;;;;;;;;21.72;73.91;96483.14;611891;232;66946;-74
2022/05/23 00:11:19;;;;;;;;;;;;;;;21.72;73.93;96475.12;611870;232;65363;-74
2022/05/23 00:13:47;;;;;;;;;;;;;;;21.72;74.36;96486.61;611841;232;65097;-74
2022/05/23 00:16:16;;;;;;;;;;;;;;;21.72;74.00;96477.80;611819;232;66920;-74
2022/05/23 00:18:44;;;;;;;;;;;;;;;21.71;73.89;96479.64;611826;232;63055;-74
2022/05/23 00:21:11;;;;;;;;;;;;;;;21.71;74.13;96476.97;611771;232;67131;-74
2022/05/23 00:23:39;;;;;;;;;;;;;;;21.70;74.15;96475.39;611860;232;67018;-74
2022/05/23 00:26:06;;;;;;;;;;;;;;;21.71;74.22;96471.63;611809;232;65403;-74
2022/05/23 00:28:34;;;;;;;;;;;;;;;21.70;74.06;96478.06;611821;232;67305;-74
2022/05/23 00:31:01;;;;;;;;;;;;;;;21.71;74.30;96473.51;611847;232;66954;-74
2022/05/23 00:36:15;;;;;;;;;;;;;;;21.70;74.28;96467.38;611864;232;64491;-74
2022/05/23 00:38:43;;;;;;;;;;;;;;;21.71;74.18;96470.83;611899;232;67072;-74
2022/05/23 00:44:15;;;;;;;;;;;;;;;21.70;74.03;96466.58;611820;232;67046;-73
2022/05/23 00:46:50;;;;;;;;;;;;;;;21.70;74.52;96461.23;611786;232;65124;-73
2022/05/23 00:49:25;;;;;;;;;;;;;;;21.70;74.29;96461.23;611808;232;63931;-72
2022/05/23 00:51:53;;;;;;;;;;;;;;;21.69;74.21;96455.09;611849;232;67119;-72
2022/05/23 00:54:22;;;;;;;;;;;;;;;21.69;74.58;96451.63;611866;232;64781;-73
2022/05/23 00:56:51;;;;;;;;;;;;;;;21.69;74.48;96454.30;611813;232;65102;-72
2022/05/23 00:59:20;;;;;;;;;;;;;;;21.70;74.50;96463.91;611828;232;67064;-72
2022/05/23 01:01:48;;;;;;;;;;;;;;;21.69;74.38;96454.30;611021;231;66959;-72
2022/05/23 01:04:15;;;;;;;;;;;;;;;21.70;74.68;96453.20;611638;229;65098;-72
2022/05/23 01:06:43;;;;;;;;;;;;;;;21.69;74.33;96448.95;611841;232;66753;-72
2022/05/23 01:09:11;;;;;;;;;;;;;;;21.70;74.67;96455.88;611862;232;67071;-72
2022/05/23 01:11:39;;;;;;;;;;;;;;;21.69;74.25;96449.74;611786;232;62970;-72
2022/05/23 01:14:07;;;;;;;;;;;;;;;21.69;74.61;96451.63;611839;232;65119;-73
2022/05/23 01:16:34;;;;;;;;;;;;;;;21.69;74.57;96448.95;611803;232;64852;-72
2022/05/23 01:19:03;;;;;;;;;;;;;;;21.69;74.57;96446.28;611803;232;65854;-72
2022/05/23 01:21:50;;;;;;;;;;;;;;;21.68;74.53;96447.34;611852;232;67146;-72
2022/05/23 01:24:20;;;;;;;;;;;;;;;21.70;74.42;96445.19;606399;232;66066;-74
2022/05/23 01:26:51;;;;;;;;;;;;;;;21.69;74.72;96438.26;611206;232;42070;-74
2022/05/23 01:29:20;;;;;;;;;;;;;;;21.68;74.29;96432.09;611485;232;45925;-74
2022/05/23 01:31:50;;;;;;;;;;;;;;;21.68;74.63;96434.77;611839;230;43655;-74
2022/05/23 01:34:26;;;;;;;;;;;;;;;21.67;74.41;96430.52;611854;232;44141;-74
2022/05/23 01:36:56;;;;;;;;;;;;;;;21.68;74.46;96433.98;611463;232;48299;-74
2022/05/23 01:39:24;;;;;;;;;;;;;;;21.68;74.57;96437.44;611799;232;67814;-74
2022/05/23 01:41:52;;;;;;;;;;;;;;;21.68;74.68;96431.30;611819;232;65354;-74
2022/05/23 01:44:19;;;;;;;;;;;;;;;21.68;74.60;96426.74;611800;232;64878;-72
2022/05/23 01:46:49;;;;;;;;;;;;;;;21.68;74.32;96429.41;611389;232;48193;-72
2022/05/23 01:49:24;;;;;;;;;;;;;;;21.67;74.44;96425.16;611854;232;44108;-72
2022/05/23 01:51:51;;;;;;;;;;;;;;;21.68;74.50;96428.63;611865;232;67711;-72
2022/05/23 01:54:21;;;;;;;;;;;;;;;21.67;74.61;96430.52;611920;230;43771;-72
2022/05/23 01:56:50;;;;;;;;;;;;;;;21.67;74.35;96430.52;611789;232;63556;-72
2022/05/23 02:02:04;;;;;;;;;;;;;;;21.67;74.77;96425.16;611818;232;64702;-71
2022/05/23 02:04:33;;;;;;;;;;;;;;;21.68;74.71;96436.65;611870;230;47075;-71
2022/05/23 02:07:01;;;;;;;;;;;;;;;21.67;74.57;96430.52;611801;232;66880;-71
2022/05/23 02:09:30;;;;;;;;;;;;;;;21.66;74.63;96428.94;611838;230;44498;-71
2022/05/23 02:12:02;;;;;;;;;;;;;;;21.67;74.71;96424.38;611541;232;46431;-70
2022/05/23 02:14:32;;;;;;;;;;;;;;;21.67;74.95;96427.05;606336;232;68067;-70
2022/05/23 02:17:00;;;;;;;;;;;;;;;21.65;74.46;96427.33;611859;232;67363;-71
2022/05/23 02:19:29;;;;;;;;;;;;;;;21.66;74.58;96434.28;611806;232;65331;-71
2022/05/23 02:21:58;;;;;;;;;;;;;;;21.66;74.43;96434.28;611889;231;44081;-71
2022/05/23 02:24:26;;;;;;;;;;;;;;;21.67;74.71;96432.39;611808;232;66872;-71
2022/05/23 02:26:53;;;;;;;;;;;;;;;21.67;74.71;96432.39;611780;232;62879;-71
2022/05/23 02:29:35;;;;;;;;;;;;;;;21.66;74.28;96436.13;611847;232;44158;-71
2022/05/23 02:32:03;;;;;;;;;;;;;;;21.66;74.37;96433.46;611819;232;67078;-71
2022/05/23 02:34:31;;;;;;;;;;;;;;;21.66;74.72;96444.98;611811;232;65265;-71
2022/05/23 02:36:59;;;;;;;;;;;;;;;21.66;74.54;96441.48;611803;232;64605;-71
2022/05/23 02:39:29;;;;;;;;;;;;;;;21.66;74.77;96438.81;609019;232;48012;-71
2022/05/23 02:41:56;;;;;;;;;;;;;;;21.66;74.72;96442.30;611808;232;65264;-71
2022/05/23 02:44:24;;;;;;;;;;;;;;;21.66;74.68;96449.50;611877;232;64486;-71
2022/05/23 02:46:53;;;;;;;;;;;;;;;21.66;74.69;96444.98;611791;232;67452;-71
2022/05/23 02:49:22;;;;;;;;;;;;;;;21.66;74.67;96447.66;611883;230;43705;-71
2022/05/23 02:51:51;;;;;;;;;;;;;;;21.66;74.86;96441.48;611848;230;45426;-71
2022/05/23 02:54:19;;;;;;;;;;;;;;;21.65;74.71;96454.06;611825;232;67304;-71
2022/05/23 02:56:48;;;;;;;;;;;;;;;21.66;74.89;96444.16;611686;232;42963;-71
2022/05/23 02:59:18;;;;;;;;;;;;;;;21.65;74.66;96454.06;611884;230;44310;-71
2022/05/23 03:04:32;;;;;;;;;;;;;;;21.66;74.70;96449.50;612368;229;44167;-71
2022/05/23 03:07:00;;;;;;;;;;;;;;;21.65;74.85;96450.59;611808;232;67027;-71
2022/05/23 03:09:30;;;;;;;;;;;;;;;21.65;74.82;96459.41;611865;232;64150;-71
2022/05/23 03:11:57;;;;;;;;;;;;;;;21.65;74.87;96458.63;611878;232;63036;-71
2022/05/23 03:14:26;;;;;;;;;;;;;;;21.65;75.15;96451.39;611889;230;45220;-71
2022/05/23 03:16:57;;;;;;;;;;;;;;;21.66;74.98;96457.53;611827;232;44755;-71
2022/05/23 03:19:25;;;;;;;;;;;;;;;21.64;74.89;96452.48;611786;230;62613;-71
2022/05/23 03:27:26;;;;;;;;;;;;;;;21.64;74.83;96457.05;611816;232;62633;-72
2022/05/23 03:29:55;;;;;;;;;;;;;;;21.64;74.85;96462.39;611928;231;45793;-72
2022/05/23 03:32:23;;;;;;;;;;;;;;;21.64;75.06;96462.39;611788;232;64861;-72
2022/05/23 03:34:52;;;;;;;;;;;;;;;21.64;74.91;96457.05;611938;231;43925;-74
2022/05/23 03:37:21;;;;;;;;;;;;;;;21.63;74.83;96456.22;611813;232;67332;-74
2022/05/23 03:39:48;;;;;;;;;;;;;;;21.64;75.04;96462.39;611844;232;66880;-74
2022/05/23 03:42:17;;;;;;;;;;;;;;;21.64;74.89;96467.73;611834;232;65358;-74
2022/05/23 03:44:46;;;;;;;;;;;;;;;21.64;74.98;96462.39;611836;232;67298;-73
2022/05/23 03:47:14;;;;;;;;;;;;;;;21.64;74.92;96465.06;611780;232;64812;-72
2022/05/23 03:49:41;;;;;;;;;;;;;;;21.64;74.95;96462.39;611833;232;62980;-73
2022/05/23 03:52:09;;;;;;;;;;;;;;;21.63;74.90;96464.25;611827;232;67198;-72
2022/05/23 03:54:36;;;;;;;;;;;;;;;21.63;75.20;96460.78;611901;232;66830;-72
2022/05/23 03:57:04;;;;;;;;;;;;;;;21.63;74.76;96458.89;611812;232;62999;-72
2022/05/23 03:59:32;;;;;;;;;;;;;;;21.64;74.74;96465.06;611830;232;67082;-72
2022/05/23 04:01:59;;;;;;;;;;;;;;;21.63;75.03;96464.25;611827;232;66684;-72
2022/05/23 04:04:34;;;;;;;;;;;;;;;21.63;75.10;96458.11;611503;230;43757;-72
2022/05/23 04:07:13;;;;;;;;;;;;;;;21.63;74.92;96460.78;610947;232;48286;-72
2022/05/23 04:09:43;;;;;;;;;;;;;;;21.62;74.94;96457.32;611580;232;48848;-72
2022/05/23 04:12:10;;;;;;;;;;;;;;;21.62;75.01;96462.66;611774;232;63154;-72
2022/05/23 04:14:39;;;;;;;;;;;;;;;21.63;74.75;96461.57;611855;229;43809;-74
2022/05/23 04:17:08;;;;;;;;;;;;;;;21.63;75.42;96461.57;611811;232;64700;-72
2022/05/23 04:19:37;;;;;;;;;;;;;;;21.63;75.40;96460.78;611861;232;44193;-73
2022/05/23 04:22:12;;;;;;;;;;;;;;;21.62;75.18;96459.99;613269;230;45859;-75
2022/05/23 04:24:41;;;;;;;;;;;;;;;21.63;75.72;96458.11;615050;230;44851;-72
2022/05/23 04:27:09;;;;;;;;;;;;;;;21.62;75.49;96451.18;614032;230;65144;-72
2022/05/23 04:29:38;;;;;;;;;;;;;;;21.61;75.65;96453.06;616424;229;49234;-72
2022/05/23 04:35:12;;;;;;;;;;;;;;;21.61;75.54;96458.41;616480;229;44653;-72
2022/05/23 04:37:25;;;;;;;;;;;;;;;21.61;75.13;96455.73;616539;230;66917;-73
2022/05/23 04:39:54;;;;;;;;;;;;;;;21.61;75.18;96454.95;616566;230;67433;-73
2022/05/23 04:42:23;;;;;;;;;;;;;;;21.62;75.55;96448.50;613193;230;65832;-73
2022/05/23 04:44:51;;;;;;;;;;;;;;;21.61;75.47;96452.27;611830;232;67206;-73
2022/05/23 04:50:05;;;;;;;;;;;;;;;21.61;75.42;96446.92;611831;232;62973;-73
2022/05/23 04:52:37;;;;;;;;;;;;;;;21.60;75.51;96450.67;611860;230;44226;-73
2022/05/23 04:55:06;;;;;;;;;;;;;;;21.61;75.51;96454.95;611851;232;67582;-73
2022/05/23 04:57:35;;;;;;;;;;;;;;;21.60;75.40;96453.34;611811;232;65235;-73
2022/05/23 05:00:06;;;;;;;;;;;;;;;21.60;75.41;96451.45;611678;232;67275;-72
2022/05/23 05:02:36;;;;;;;;;;;;;;;21.60;75.31;96453.34;611774;230;43413;-73
2022/05/23 05:05:05;;;;;;;;;;;;;;;21.60;75.17;96443.44;611331;230;65794;-72
2022/05/23 05:07:34;;;;;;;;;;;;;;;21.59;75.04;96430.38;611256;232;67755;-75
2022/05/23 05:10:01;;;;;;;;;;;;;;;21.59;75.06;96438.39;611213;232;64776;-70
2022/05/23 05:12:29;;;;;;;;;;;;;;;21.59;74.85;96435.72;611158;232;63006;-73
2022/05/23 05:14:56;;;;;;;;;;;;;;;21.58;75.17;96432.25;611188;232;67303;-68
2022/05/23 05:17:24;;;;;;;;;;;;;;;21.59;75.24;96438.39;611350;232;66867;-72
2022/05/23 05:19:52;;;;;;;;;;;;;;;21.62;69.72;96443.16;611853;232;62986;-69
2022/05/23 05:22:38;;;;;;;;;;;;;;;21.62;73.38;96437.81;611970;232;41971;-73
2022/05/23 05:25:11;;;;;;;;;;;;;;;21.61;73.88;96441.58;610930;232;49229;-70
2022/05/23 05:27:40;;;;;;;;;;;;;;;21.59;74.27;96433.83;611565;232;42253;-71
2022/05/23 05:30:09;;;;;;;;;;;;;;;21.60;74.60;96437.30;611805;232;64925;-73
2022/05/23 05:32:42;;;;;;;;;;;;;;;21.59;74.73;96439.18;611740;232;64994;-73
2022/05/23 05:35:11;;;;;;;;;;;;;;;21.59;74.61;96430.38;611821;232;65460;-72
2022/05/23 05:37:44;;;;;;;;;;;;;;;21.58;74.59;96426.09;610063;232;67010;-70
2022/05/23 05:40:11;;;;;;;;;;;;;;;21.59;74.67;96425.02;611846;232;66633;-72
2022/05/23 05:42:41;;;;;;;;;;;;;;;21.58;74.65;96423.41;606336;232;64429;-71
2022/05/23 05:45:11;;;;;;;;;;;;;;;21.57;74.57;96413.81;611783;232;67107;-72
2022/05/23 05:47:40;;;;;;;;;;;;;;;21.58;74.65;96413.54;611784;232;67564;-71
2022/05/23 05:50:12;;;;;;;;;;;;;;;21.57;74.58;96414.60;611831;232;65158;-75
2022/05/23 05:52:54;;;;;;;;;;;;;;;21.57;74.56;96413.81;611889;231;49189;-71
2022/05/23 05:55:22;;;;;;;;;;;;;;;21.57;74.30;96422.62;611820;232;66892;-71
2022/05/23 05:57:51;;;;;;;;;;;;;;;21.57;74.49;96416.48;611219;230;43860;-71
2022/05/23 06:00:21;;;;;;;;;;;;;;;21.56;74.50;96414.91;611265;232;67068;-71
2022/05/23 06:02:50;;;;;;;;;;;;;;;21.56;74.62;96420.25;611864;230;43838;-71
2022/05/23 06:05:19;;;;;;;;;;;;;;;21.57;74.74;96424.51;610866;229;47144;-72
2022/05/23 06:13:32;;;;;;;;;;;;;;;21.56;74.40;96420.25;610297;232;43923;-71
2022/05/23 06:16:01;;;;;;;;;;;;;;;21.57;74.07;96424.51;610567;232;50064;-71
2022/05/23 06:18:31;;;;;;;;;;;;;;;21.58;74.21;96418.89;610554;229;45836;-71
2022/05/23 06:20:58;;;;;;;;;;;;;;;21.58;74.20;96423.41;610653;232;63039;-72
2022/05/23 06:23:26;;;;;;;;;;;;;;;21.58;74.44;96424.23;610691;232;64581;-72
2022/05/23 06:25:55;;;;;;;;;;;;;;;21.59;74.52;96417.00;610539;232;45642;-72
2022/05/23 06:28:24;;;;;;;;;;;;;;;21.60;74.63;96423.92;610490;232;44027;-71
2022/05/23 06:30:54;;;;;;;;;;;;;;;21.60;74.73;96423.92;610601;232;67908;-75
2022/05/23 06:33:24;;;;;;;;;;;;;;;21.61;74.68;96417.52;610592;232;45350;-76
2022/05/23 06:35:53;;;;;;;;;;;;;;;21.61;74.66;96431.67;610493;231;45420;-75
2022/05/23 06:38:24;;;;;;;;;;;;;;;21.61;74.57;96423.66;610621;229;44006;-75
2022/05/23 06:40:53;;;;;;;;;;;;;;;21.61;74.53;96428.21;609225;231;46902;-73
2022/05/23 06:43:40;;;;;;;;;;;;;;;21.62;74.38;96437.81;610750;232;37546;-72
2022/05/23 06:46:26;;;;;;;;;;;;;;;21.61;74.06;96430.88;610612;232;38756;-73
2022/05/23 06:48:59;;;;;;;;;;;;;;;21.62;73.80;96435.14;610475;232;48579;-75
2022/05/23 06:51:42;;;;;;;;;;;;;;;21.61;73.54;96437.02;610537;232;47643;-76
2022/05/23 06:54:11;;;;;;;;;;;;;;;21.62;73.71;96437.81;610427;232;49471;-76
2022/05/23 06:56:48;;;;;;;;;;;;;;;21.62;73.53;96429.79;610683;232;49352;-80
2022/05/23 06:59:22;;;;;;;;;;;;;;;21.60;70.06;96429.27;610760;229;46588;-75
2022/05/23 07:01:51;;;;;;;;;;;;;;;21.62;73.12;96427.91;610622;231;50023;-75
2022/05/23 07:12:19;;;;;;;;;;;;;;;21.63;72.65;96428.70;605469;232;47130;-73
2022/05/23 07:12:35;;;;;;;;;;;;;;;21.61;72.84;96420.98;603298;232;48053;-69
2022/05/23 07:15:05;;;;;;;;;;;;;;;21.62;72.70;96421.77;603109;232;43076;-76
2022/05/23 07:17:45;;;;;;;;;;;;;;;21.62;72.49;96422.56;603076;232;45302;-72
2022/05/23 07:20:22;;;;;;;;;;;;;;;21.62;72.63;96427.11;603060;233;46376;-76
2022/05/23 07:22:57;;;;;;;;;;;;;;;21.62;72.64;96419.88;602763;235;47626;-75
2022/05/23 07:25:25;;;;;;;;;;;;;;;21.62;72.89;96414.53;603025;235;66541;-73
2022/05/23 07:27:53;;;;;;;;;;;;;;;21.62;72.67;96411.07;603010;235;64756;-75
2022/05/23 07:30:21;;;;;;;;;;;;;;;21.64;70.52;96420.40;602968;235;65165;-74
2022/05/23 07:32:50;;;;;;;;;;;;;;;21.64;72.67;96417.72;603070;235;65089;-74
2022/05/23 07:35:19;;;;;;;;;;;;;;;21.63;72.83;96418.79;603148;232;45849;-74
2022/05/23 07:37:49;;;;;;;;;;;;;;;21.64;72.55;96422.28;603134;232;42031;-74
2022/05/23 07:40:18;;;;;;;;;;;;;;;21.64;73.06;96423.07;603135;232;44092;-74
2022/05/23 07:42:47;;;;;;;;;;;;;;;21.64;73.23;96424.95;603189;232;48601;-72
2022/05/23 07:45:15;;;;;;;;;;;;;;;21.65;73.08;96434.55;603028;230;64959;-74
2022/05/23 07:47:45;;;;;;;;;;;;;;;21.64;73.16;96425.74;603190;232;44259;-73
2022/05/23 07:50:19;;;;;;;;;;;;;;;21.64;73.41;96427.63;603114;232;44263;-74
2022/05/23 08:00:49;;;;;;;;;;;;;;;21.63;72.37;96421.46;602866;232;66569;-70
2022/05/23 08:03:23;;;;;;;;;;;;;;;21.63;72.00;96420.67;605553;232;46876;-68
2022/05/23 08:06:01;;;;;;;;;;;;;;;21.63;71.58;96423.34;610559;232;50383;-68
2022/05/23 08:08:29;;;;;;;;;;;;;;;21.63;71.58;96423.34;610607;232;65768;-71
2022/05/23 08:10:58;;;;;;;;;;;;;;;21.62;71.44;96417.20;610693;232;64451;-76
2022/05/23 08:13:27;;;;;;;;;;;;;;;21.64;71.74;96419.61;610710;232;64612;-71
2022/05/23 08:15:55;;;;;;;;;;;;;;;21.65;73.00;96429.20;610630;232;63020;-72
2022/05/23 08:18:22;;;;;;;;;;;;;;;21.64;72.72;96414.26;610612;232;67091;-73
2022/05/23 08:20:51;;;;;;;;;;;;;;;21.64;73.05;96422.28;610608;232;64591;-70
2022/05/23 08:23:21;;;;;;;;;;;;;;;21.64;72.96;96419.61;610678;232;41738;-69
2022/05/23 08:25:53;;;;;;;;;;;;;;;21.64;72.56;96424.95;610319;231;48277;-69
2022/05/23 08:28:21;;;;;;;;;;;;;;;21.63;72.61;96412.65;610583;232;66831;-74
2022/05/23 08:30:48;;;;;;;;;;;;;;;21.65;72.94;96426.53;610657;232;64831;-68
2022/05/23 08:33:21;;;;;;;;;;;;;;;21.65;73.02;96421.19;610516;232;44509;-68
2022/05/23 08:35:49;;;;;;;;;;;;;;;21.64;71.97;96417.72;610596;228;67373;-67
2022/05/23 08:38:18;;;;;;;;;;;;;;;21.64;71.82;96419.61;610732;232;43087;-67
2022/05/23 08:40:59;;;;;;;;;;;;;;;21.65;71.73;96410.48;610632;232;44053;-69
2022/05/23 08:43:28;;;;;;;;;;;;;;;21.63;71.70;96426.81;610672;232;64991;-69
2022/05/23 08:45:57;;;;;;;;;;;;;;;21.64;71.96;96423.07;610609;232;65919;-68
2022/05/23 08:48:28;;;;;;;;;;;;;;;21.64;71.67;96422.28;610619;232;44185;-68
2022/05/23 08:51:01;;;;;;;;;;;;;;;21.63;71.30;96418.79;610508;232;67375;-67
2022/05/23 08:53:38;;;;;;;;;;;;;;;21.63;71.11;96416.11;610533;232;41701;-67
2022/05/23 08:56:29;;;;;;;;;;;;;;;21.64;71.14;96422.28;593543;238;48558;-68
2022/05/23 08:58:56;;;;;;;;;;;;;;;21.64;71.49;96419.61;608054;232;47973;-67
2022/05/23 09:01:25;;;;;;;;;;;;;;;21.63;71.51;96407.30;610582;228;63280;-69
2022/05/23 09:03:57;;;;;;;;;;;;;;;21.63;71.58;96413.44;611990;231;67136;-68
2022/05/23 09:06:30;;;;;;;;;;;;;;;21.63;71.40;96424.13;613134;231;66916;-68
2022/05/23 09:08:59;;;;;;;;;;;;;;;21.63;71.07;96412.65;613139;231;65211;-68
2022/05/23 09:11:35;;;;;;;;;;;;;;;21.63;71.32;96409.98;613287;231;65016;-69
2022/05/23 09:14:04;;;;;;;;;;;;;;;21.65;67.95;96410.48;613259;231;65046;-69
2022/05/23 09:16:40;;;;;;;;;;;;;;;21.66;70.29;96398.70;613144;231;65359;-69
2022/05/23 09:19:26;;;;;;;;;;;;;;;21.65;70.53;96405.93;613272;231;67451;-68
2022/05/23 09:22:13;;;;;;;;;;;;;;;21.66;71.76;96404.05;613233;231;67833;-68
2022/05/23 09:24:42;;;;;;;;;;;;;;;21.65;71.70;96399.80;613209;230;65490;-68
2022/05/23 09:27:22;;;;;;;;;;;;;;;21.65;71.70;96400.58;613307;231;43334;-72
2022/05/23 09:29:51;;;;;;;;;;;;;;;21.65;71.80;96408.61;613286;231;66582;-68
2022/05/23 09:32:20;;;;;;;;;;;;;;;21.65;71.96;96397.12;613185;230;66462;-69
2022/05/23 09:34:49;;;;;;;;;;;;;;;21.64;72.33;96396.33;613245;231;64570;-68
2022/05/23 09:37:25;;;;;;;;;;;;;;;21.65;72.47;96391.77;610397;232;65165;-68
2022/05/23 09:39:54;;;;;;;;;;;;;;;21.64;72.55;96396.33;610624;232;63326;-67
2022/05/23 09:47:46;;;;;;;;;;;;;;;21.64;73.03;96387.52;611368;230;65312;-68
2022/05/23 09:50:15;;;;;;;;;;;;;;;21.64;73.02;96404.35;612829;231;67869;-68
2022/05/23 09:52:50;;;;;;;;;;;;;;;21.64;72.97;96398.22;612706;231;66865;-68
2022/05/23 09:55:19;;;;;;;;;;;;;;;21.64;72.60;96392.87;613279;231;65317;-68
2022/05/23 09:57:54;;;;;;;;;;;;;;;21.63;72.67;96389.38;612598;231;64587;-68
2022/05/23 10:00:24;;;;;;;;;;;;;;;21.63;72.33;96386.70;613186;231;67031;-69
2022/05/23 10:02:54;;;;;;;;;;;;;;;21.64;72.56;96377.61;613143;231;65940;-68
2022/05/23 10:05:23;;;;;;;;;;;;;;;21.64;72.81;96377.61;613138;231;65022;-68
2022/05/23 10:07:54;;;;;;;;;;;;;;;21.64;72.16;96376.83;613207;231;67174;-68
2022/05/23 10:10:23;;;;;;;;;;;;;;;21.64;72.16;96379.50;613204;231;62992;-68
2022/05/23 10:13:13;;;;;;;;;;;;;;;21.64;72.30;96379.50;613182;231;67599;-70
2022/05/23 10:15:46;;;;;;;;;;;;;;;21.64;72.53;96377.61;606940;233;64889;-68
2022/05/23 10:18:33;;;;;;;;;;;;;;;21.64;72.42;96371.48;606778;234;65185;-68
2022/05/23 10:21:02;;;;;;;;;;;;;;;21.65;72.09;96370.38;606686;234;66964;-69
2022/05/23 10:23:33;;;;;;;;;;;;;;;21.65;71.02;96378.40;606758;234;65579;-69
2022/05/23 10:26:03;;;;;;;;;;;;;;;21.63;71.40;96365.31;606790;233;43914;-69
2022/05/23 10:28:44;;;;;;;;;;;;;;;21.64;71.15;96360.78;606660;234;64588;-69
2022/05/23 10:31:29;;;;;;;;;;;;;;;21.63;71.06;96367.98;606717;234;67472;-74
2022/05/23 10:34:16;;;;;;;;;;;;;;;21.63;70.79;96361.84;606611;234;46929;-73
2022/05/23 10:36:45;;;;;;;;;;;;;;;21.63;70.76;96356.50;606800;234;64517;-74
2022/05/23 10:42:09;;;;;;;;;;;;;;;21.62;70.31;96353.03;606694;234;64425;-72
2022/05/23 10:44:44;;;;;;;;;;;;;;;21.61;70.19;96346.11;606713;234;64360;-74
2022/05/23 10:47:32;;;;;;;;;;;;;;;21.62;70.24;96349.58;606437;234;64445;-74
2022/05/23 10:50:01;;;;;;;;;;;;;;;21.63;70.29;96343.13;606510;234;65330;-74
2022/05/23 10:52:34;;;;;;;;;;;;;;;21.62;69.99;96352.25;606540;234;65227;-73
2022/05/23 10:55:08;;;;;;;;;;;;;;;21.62;69.87;96336.20;606635;234;68142;-73
2022/05/23 10:57:43;;;;;;;;;;;;;;;21.62;69.91;96342.34;606694;234;63308;-72
2022/05/23 11:00:12;;;;;;;;;;;;;;;21.62;70.00;96344.22;606474;233;68044;-73
2022/05/23 11:02:57;;;;;;;;;;;;;;;21.63;70.12;96340.45;606610;234;67310;-72
2022/05/23 11:05:35;;;;;;;;;;;;;;;21.62;70.48;96331.64;606763;234;65342;-73
2022/05/23 11:08:16;;;;;;;;;;;;;;;21.63;70.41;96319.85;606515;233;67816;-75
2022/05/23 11:10:46;;;;;;;;;;;;;;;21.63;70.68;96335.11;606648;234;64812;-73
2022/05/23 11:13:18;;;;;;;;;;;;;;;21.63;70.67;96324.41;606829;234;65305;-73
2022/05/23 11:15:47;;;;;;;;;;;;;;;21.63;70.73;96327.09;606707;234;66696;-73
2022/05/23 11:18:19;;;;;;;;;;;;;;;21.63;70.78;96337.78;606355;234;67099;-73
2022/05/23 11:20:48;;;;;;;;;;;;;;;21.62;70.70;96323.62;600063;232;63181;-73
2022/05/23 11:23:21;;;;;;;;;;;;;;;21.63;70.79;96332.44;610608;232;67363;-73
2022/05/23 11:25:50;;;;;;;;;;;;;;;21.64;70.77;96320.67;607145;231;67776;-74
2022/05/23 11:33:53;;;;;;;;;;;;;;;21.64;71.30;96312.65;610620;232;67023;-74
2022/05/23 11:36:32;;;;;;;;;;;;;;;21.64;71.48;96312.65;610608;232;63366;-74
2022/05/23 11:38:54;;;;;;;;;;;;;;;21.64;71.84;96312.65;610329;232;65850;-75
2022/05/23 11:41:29;;;;;;;;;;;;;;;21.63;71.38;96316.39;610632;232;64664;-71
2022/05/23 11:43:56;;;;;;;;;;;;;;;21.64;71.63;96312.65;610705;232;65468;-75
2022/05/23 11:46:28;;;;;;;;;;;;;;;21.64;72.26;96312.65;610507;232;67118;-74
2022/05/23 11:49:00;;;;;;;;;;;;;;;21.64;72.21;96312.65;610633;232;67816;-75
2022/05/23 11:51:36;;;;;;;;;;;;;;;21.64;72.04;96318.00;610643;232;45066;-75
2022/05/23 11:54:06;;;;;;;;;;;;;;;21.64;71.49;96316.11;610477;232;66178;-75
2022/05/23 11:56:41;;;;;;;;;;;;;;;21.64;71.58;96313.44;610546;231;66871;-75
2022/05/23 11:59:10;;;;;;;;;;;;;;;21.65;71.55;96308.88;610711;232;65499;-74
2022/05/23 12:01:38;;;;;;;;;;;;;;;21.64;71.66;96312.65;610659;232;64770;-72
2022/05/23 12:04:07;;;;;;;;;;;;;;;21.65;71.75;96308.88;612344;230;66855;-74
2022/05/23 12:06:41;;;;;;;;;;;;;;;21.65;71.76;96312.34;613175;231;66330;-71
2022/05/23 12:09:19;;;;;;;;;;;;;;;21.65;71.91;96311.55;613237;231;66764;-71
2022/05/23 12:11:49;;;;;;;;;;;;;;;21.65;71.98;96312.34;613210;231;67742;-72
2022/05/23 12:14:21;;;;;;;;;;;;;;;21.66;71.76;96307.78;613238;231;62999;-72
2022/05/23 12:17:05;;;;;;;;;;;;;;;21.65;72.26;96287.48;613336;230;64815;-70
2022/05/23 12:19:31;;;;;;;;;;;;;;;21.66;71.91;96307.78;606578;233;66816;-71
2022/05/23 12:22:19;;;;;;;;;;;;;;;21.64;72.15;96302.74;606694;234;63028;-71
2022/05/23 12:25:03;;;;;;;;;;;;;;;21.65;72.51;96298.18;606710;234;67036;-68
2022/05/23 12:27:33;;;;;;;;;;;;;;;21.64;72.02;96302.74;606150;233;64403;-70
2022/05/23 12:30:20;;;;;;;;;;;;;;;21.65;71.62;96306.98;606703;234;63286;-72
2022/05/23 12:32:49;;;;;;;;;;;;;;;21.64;70.87;96296.61;606709;234;66742;-70
2022/05/23 12:35:18;;;;;;;;;;;;;;;21.64;71.03;96313.44;606759;234;66707;-70
2022/05/23 12:37:51;;;;;;;;;;;;;;;21.64;70.97;96313.44;606706;234;63053;-71
2022/05/23 12:40:23;;;;;;;;;;;;;;;21.64;70.92;96326.02;605284;234;67368;-71
2022/05/23 12:43:07;;;;;;;;;;;;;;;21.64;70.84;96320.67;606718;234;66806;-72
2022/05/23 12:45:43;;;;;;;;;;;;;;;21.65;70.89;96314.23;606407;233;63298;-69
2022/05/23 12:48:11;;;;;;;;;;;;;;;21.65;70.80;96324.92;606706;234;67049;-70
2022/05/23 12:50:55;;;;;;;;;;;;;;;21.64;70.79;96313.44;606499;233;64848;-70
2022/05/23 12:53:28;;;;;;;;;;;;;;;21.64;70.66;96313.44;606633;233;65548;-70
2022/05/23 12:56:16;;;;;;;;;;;;;;;21.63;70.55;96311.83;606499;233;64932;-70
2022/05/23 12:58:45;;;;;;;;;;;;;;;21.63;70.55;96309.16;606627;234;67835;-70
2022/05/23 13:01:14;;;;;;;;;;;;;;;21.65;70.79;96298.18;606602;234;66241;-69
2022/05/23 13:03:44;;;;;;;;;;;;;;;21.65;70.58;96311.55;606581;234;66793;-70
2022/05/23 13:06:29;;;;;;;;;;;;;;;21.64;70.37;96301.95;595706;234;66835;-70
2022/05/23 13:09:05;;;;;;;;;;;;;;;21.64;70.14;96309.97;606764;234;65506;-70
2022/05/23 13:11:40;;;;;;;;;;;;;;;21.63;70.18;96295.78;606650;234;66877;-70
2022/05/23 13:14:07;;;;;;;;;;;;;;;21.63;70.10;96295.78;606361;234;67732;-72
2022/05/23 13:16:37;;;;;;;;;;;;;;;21.63;70.15;96287.77;606646;234;65146;-73
2022/05/23 13:22:08;;;;;;;;;;;;;;;21.64;69.92;96299.28;606722;234;64709;-70
2022/05/23 13:24:49;;;;;;;;;;;;;;;21.64;70.23;96302.74;606633;234;63096;-69
2022/05/23 13:27:29;;;;;;;;;;;;;;;21.64;70.32;96308.09;606609;233;46661;-71
2022/05/23 13:29:58;;;;;;;;;;;;;;;21.63;69.98;96303.02;606759;234;66011;-73
2022/05/23 13:32:26;;;;;;;;;;;;;;;21.63;70.10;96309.16;606565;234;64194;-73
2022/05/23 13:34:55;;;;;;;;;;;;;;;21.63;70.02;96303.81;606716;234;67096;-72
2022/05/23 13:37:30;;;;;;;;;;;;;;;21.63;70.08;96311.83;606728;234;64795;-72
2022/05/23 13:39:59;;;;;;;;;;;;;;;21.63;69.73;96311.83;606662;234;66286;-69
2022/05/23 13:42:28;;;;;;;;;;;;;;;21.63;69.72;96311.05;606417;234;67118;-69
2022/05/23 13:44:57;;;;;;;;;;;;;;;21.63;69.73;96319.85;606458;234;64794;-69
2022/05/23 13:47:26;;;;;;;;;;;;;;;21.63;69.54;96303.02;606204;234;63099;-71
2022/05/23 13:49:58;;;;;;;;;;;;;;;21.63;69.38;96293.11;606596;234;64706;-67
2022/05/23 13:52:33;;;;;;;;;;;;;;;21.64;69.39;96307.30;606509;234;67925;-71
2022/05/23 13:55:06;;;;;;;;;;;;;;;21.68;67.46;96311.75;606668;232;42026;-71
2022/05/23 13:57:35;;;;;;;;;;;;;;;21.75;64.85;96313.28;606620;232;72548;-70
2022/05/23 14:00:14;;;;;;;;;;;;;;;21.73;68.06;96305.53;606512;234;67041;-70
2022/05/23 14:02:46;;;;;;;;;;;;;;;21.72;69.18;96299.40;599365;234;65601;-70
2022/05/23 14:05:14;;;;;;;;;;;;;;;21.69;69.46;96304.55;611824;231;64063;-71
2022/05/23 14:07:43;;;;;;;;;;;;;;;21.67;69.60;96296.80;612494;229;66819;-69